createdAt,value
2022-08-04T00:00:56.144Z,100428.30
2022-08-04T00:05:05.305Z,100426.30
2022-08-04T00:09:13.498Z,100430.02
2022-08-04T00:13:22.124Z,100433.10
2022-08-04T00:17:30.674Z,100432.30
2022-08-04T00:21:38.451Z,100436.88
2022-08-04T00:25:41.256Z,100439.67
2022-08-04T00:29:43.583Z,100438.45
2022-08-04T00:33:46.652Z,100436.42
2022-08-04T00:37:50.822Z,100434.30
2022-08-04T00:42:13.762Z,100431.41
2022-08-04T00:46:39.598Z,100427.66
2022-08-04T00:51:14.606Z,100427.33
2022-08-04T00:55:32.076Z,100428.14
2022-08-04T00:59:54.692Z,100430.15
2022-08-04T01:04:03.988Z,100428.13
2022-08-04T01:08:31.618Z,100433.14
2022-08-04T01:12:57.245Z,100434.13
2022-08-04T01:17:24.819Z,100439.31
2022-08-04T01:21:30.137Z,100438.97
2022-08-04T01:25:39.130Z,100437.96
2022-08-04T01:29:49.124Z,100435.92
2022-08-04T01:34:03.386Z,100431.42
2022-08-04T01:38:25.427Z,100435.93
2022-08-04T01:42:32.144Z,100437.71
2022-08-04T01:46:35.922Z,100442.30
2022-08-04T01:50:39.330Z,100438.77
2022-08-04T01:54:42.529Z,100438.34
2022-08-04T01:58:44.714Z,100440.55
2022-08-04T02:02:48.969Z,100438.76
2022-08-04T02:07:08.176Z,100440.27
2022-08-04T02:11:15.743Z,100435.95
2022-08-04T02:15:28.779Z,100436.24
2022-08-04T02:19:41.803Z,100431.14
2022-08-04T02:23:48.897Z,100432.73
2022-08-04T02:28:13.030Z,100431.27
2022-08-04T02:32:26.276Z,100429.95
2022-08-04T02:36:40.084Z,100428.15
2022-08-04T02:40:43.371Z,100426.37
2022-08-04T02:44:50.971Z,100429.27
2022-08-04T02:48:54.896Z,100424.73
2022-08-04T02:53:02.621Z,100427.06
2022-08-04T02:57:08.996Z,100427.56
2022-08-04T03:01:11.328Z,100427.19
2022-08-04T03:05:18.950Z,100423.52
2022-08-04T03:09:39.761Z,100424.65
2022-08-04T03:14:11.721Z,100428.30
2022-08-04T03:18:44.683Z,100430.02
2022-08-04T03:23:24.103Z,100428.13
2022-08-04T03:27:41.010Z,100427.39
2022-08-04T03:31:49.234Z,100435.39
2022-08-04T03:35:59.461Z,100440.41
2022-08-04T03:40:34.939Z,100445.12
2022-08-04T03:45:01.747Z,100448.75
2022-08-04T03:49:09.860Z,100450.61
2022-08-04T03:53:43.099Z,100453.25
2022-08-04T03:58:19.267Z,100455.06
2022-08-04T04:02:48.058Z,100450.21
2022-08-04T04:07:05.918Z,100461.50
2022-08-04T04:11:35.650Z,100464.41
2022-08-04T04:16:45.443Z,100467.52
2022-08-04T04:20:58.596Z,100468.84
2022-08-04T04:25:54.424Z,100471.61
2022-08-04T04:30:06.941Z,100473.88
2022-08-04T04:34:24.997Z,100476.65
2022-08-04T04:39:11.078Z,100478.31
2022-08-04T04:43:50.889Z,100481.50
2022-08-04T04:48:10.558Z,100487.23
2022-08-04T04:52:40.969Z,100487.81
2022-08-04T04:56:51.517Z,100492.37
2022-08-04T05:01:35.812Z,100494.31
2022-08-04T05:05:53.144Z,100501.65
2022-08-04T05:10:10.080Z,100497.25
2022-08-04T05:14:37.360Z,100492.95
2022-08-04T05:18:47.712Z,100492.16
2022-08-04T05:23:15.347Z,100496.08
2022-08-04T05:27:26.140Z,100490.91
2022-08-04T05:31:37.270Z,100492.64
2022-08-04T05:36:17.031Z,100493.58
2022-08-04T05:40:10.471Z,100495.65
2022-08-04T05:44:14.037Z,100493.17
2022-08-04T05:48:17.449Z,100503.87
2022-08-04T05:52:20.420Z,100504.02
2022-08-04T05:56:23.479Z,100501.53
2022-08-04T06:00:40.659Z,100511.83
2022-08-04T06:04:47.122Z,100513.69
2022-08-04T06:08:49.326Z,100513.16
2022-08-04T06:13:03.035Z,100506.80
2022-08-04T06:18:32.162Z,100513.41
2022-08-04T06:21:32.611Z,100510.92
2022-08-04T06:25:41.257Z,100510.27
2022-08-04T06:29:51.527Z,100509.36
2022-08-04T06:33:54.899Z,100506.99
2022-08-04T06:38:00.979Z,100508.96
2022-08-04T06:42:21.719Z,100508.09
2022-08-04T06:46:27.575Z,100507.77
2022-08-04T06:51:32.389Z,100508.97
2022-08-04T06:54:55.304Z,100513.25
2022-08-04T06:59:00.784Z,100510.61
2022-08-04T07:03:03.871Z,100514.50
2022-08-04T07:07:06.164Z,100511.72
2022-08-04T07:11:09.475Z,100506.72
2022-08-04T07:15:14.310Z,100502.21
2022-08-04T07:19:19.171Z,100500.58
2022-08-04T07:23:25.966Z,100502.20
2022-08-04T07:27:47.089Z,100500.85
2022-08-04T07:31:52.386Z,100499.41
2022-08-04T07:36:05.957Z,100500.79
2022-08-04T07:40:13.181Z,100508.44
2022-08-04T07:44:16.306Z,100501.92
2022-08-04T07:48:22.238Z,100505.35
2022-08-04T07:52:27.519Z,100499.59
2022-08-04T07:56:30.718Z,100499.20
2022-08-04T08:00:33.394Z,100505.21
2022-08-04T08:04:36.061Z,100501.42
2022-08-04T08:08:39.624Z,100506.48
2022-08-04T08:12:51.373Z,100501.48
2022-08-04T08:16:54.502Z,100496.08
2022-08-04T08:20:57.952Z,100493.83
2022-08-04T08:25:01.006Z,100496.85
2022-08-04T08:29:03.882Z,100502.05
2022-08-04T08:33:09.408Z,100499.61
2022-08-04T08:37:35.114Z,100497.15
2022-08-04T08:42:16.556Z,100505.73
2022-08-04T08:46:48.790Z,100504.58
2022-08-04T08:51:03.393Z,100504.83
2022-08-04T08:55:33.096Z,100497.30
2022-08-04T09:00:12.099Z,100498.57
2022-08-04T09:04:41.284Z,100497.20
2022-08-04T09:08:52.252Z,100498.48
2022-08-04T09:13:10.376Z,100497.17
2022-08-04T09:17:29.918Z,100499.92
2022-08-04T09:21:39.367Z,100497.01
2022-08-04T09:25:49.716Z,100494.02
2022-08-04T09:30:06.291Z,100492.42
2022-08-04T09:34:27.506Z,100492.48
2022-08-04T09:38:44.573Z,100491.68
2022-08-04T09:43:20.446Z,100491.13
2022-08-04T09:47:43.410Z,100485.68
2022-08-04T09:51:57.206Z,100481.36
2022-08-04T09:56:19.552Z,100485.13
2022-08-04T10:00:40.464Z,100476.73
2022-08-04T10:04:44.965Z,100476.65
2022-08-04T10:09:30.653Z,100476.05
2022-08-04T10:14:02.395Z,100477.41
2022-08-04T10:18:13.340Z,100480.77
2022-08-04T10:22:28.102Z,100475.57
2022-08-04T10:27:22.199Z,100465.23
2022-08-04T10:31:32.700Z,100460.09
2022-08-04T10:35:48.910Z,100455.09
2022-08-04T10:40:28.340Z,100451.98
2022-08-04T10:44:57.665Z,100447.80
2022-08-04T10:49:06.145Z,100447.08
2022-08-04T10:53:20.631Z,100447.38
2022-08-04T10:57:25.814Z,100446.95
2022-08-04T11:02:01.740Z,100444.06
2022-08-04T11:05:58.899Z,100439.78
2022-08-04T11:10:02.986Z,100435.23
2022-08-04T11:14:10.250Z,100430.19
2022-08-04T11:18:18.307Z,100432.10
2022-08-04T11:22:25.247Z,100429.05
2022-08-04T11:26:48.705Z,100429.40
2022-08-04T11:31:02.426Z,100432.41
2022-08-04T11:35:09.346Z,100419.70
2022-08-04T11:39:33.820Z,100419.48
2022-08-04T11:44:04.236Z,100419.61
2022-08-04T11:48:16.154Z,100414.98
2022-08-04T11:52:21.622Z,100417.02
2022-08-04T11:56:36.849Z,100413.41
2022-08-04T12:00:55.844Z,100416.73
2022-08-04T12:05:05.846Z,100408.15
2022-08-04T12:09:49.150Z,100406.69
2022-08-04T12:14:33.397Z,100404.02
2022-08-04T12:18:42.829Z,100404.91
2022-08-04T12:22:51.172Z,100398.55
2022-08-04T12:26:58.217Z,100393.39
2022-08-04T12:31:20.445Z,100389.65
2022-08-04T12:35:33.619Z,100386.98
2022-08-04T12:40:27.277Z,100376.75
2022-08-04T12:44:36.248Z,100384.85
2022-08-04T12:48:38.169Z,100373.96
2022-08-04T12:53:04.202Z,100372.99
2022-08-04T12:57:08.759Z,100371.39
2022-08-04T13:02:09.544Z,100368.98
2022-08-04T13:05:45.193Z,100361.78
2022-08-04T13:09:49.292Z,100359.89
2022-08-04T13:14:17.212Z,100355.02
2022-08-04T13:18:17.456Z,100352.39
2022-08-04T13:22:29.833Z,100345.80
2022-08-04T13:26:44.385Z,100346.27
2022-08-04T13:31:00.126Z,100340.73
2022-08-04T13:35:04.503Z,100339.87
2022-08-04T13:39:19.761Z,100336.44
2022-08-04T13:44:16.043Z,100327.84
2022-08-04T13:47:59.066Z,100325.05
2022-08-04T13:52:17.731Z,100325.60
2022-08-04T13:56:22.738Z,100319.52
2022-08-04T14:00:30.025Z,100318.70
2022-08-04T14:04:42.546Z,100318.48
2022-08-04T14:08:56.005Z,100316.11
2022-08-04T14:12:58.886Z,100314.36
2022-08-04T14:17:19.867Z,100311.58
2022-08-04T14:21:23.162Z,100307.27
2022-08-04T14:25:35.272Z,100306.92
2022-08-04T14:29:38.855Z,100310.38
2022-08-04T14:34:03.093Z,100300.91
2022-08-04T14:38:08.591Z,100301.86
2022-08-04T14:42:10.814Z,100297.34
2022-08-04T14:46:14.269Z,100297.25
2022-08-04T14:50:17.816Z,100289.52
2022-08-04T14:54:33.765Z,100295.41
2022-08-04T14:58:39.495Z,100291.98
2022-08-04T15:02:42.856Z,100290.15
2022-08-04T15:06:47.094Z,100293.76
2022-08-04T15:10:49.823Z,100291.94
2022-08-04T15:14:52.645Z,100290.47
2022-08-04T15:18:57.034Z,100285.24
2022-08-04T15:23:06.200Z,100280.98
2022-08-04T15:27:14.018Z,100282.29
2022-08-04T15:32:05.632Z,100285.02
2022-08-04T15:35:45.927Z,100280.73
2022-08-04T15:40:13.942Z,100274.02
2022-08-04T15:44:48.637Z,100277.77
2022-08-04T15:48:52.015Z,100276.91
2022-08-04T15:53:12.883Z,100279.41
2022-08-04T15:57:15.662Z,100278.53
2022-08-04T16:01:19.118Z,100280.82
2022-08-04T16:05:21.460Z,100275.46
2022-08-04T16:09:25.854Z,100272.17
2022-08-04T16:14:03.516Z,100271.89
2022-08-04T16:18:10.831Z,100263.98
2022-08-04T16:22:39.257Z,100267.58
2022-08-04T16:26:55.137Z,100265.58
2022-08-04T16:31:02.452Z,100264.23
2022-08-04T16:35:17.602Z,100259.73
2022-08-04T16:39:20.003Z,100255.91
2022-08-04T16:43:29.414Z,100256.55
2022-08-04T16:47:47.099Z,100255.19
2022-08-04T16:51:51.081Z,100258.96
2022-08-04T16:55:59.419Z,100261.69
2022-08-04T17:00:01.916Z,100259.79
2022-08-04T17:04:05.753Z,100259.34
2022-08-04T17:12:31.672Z,100257.96
2022-08-04T17:16:37.503Z,100258.55
2022-08-04T17:21:01.237Z,100255.98
2022-08-04T17:25:04.759Z,100258.98
2022-08-04T17:29:08.389Z,100257.36
2022-08-04T17:33:14.968Z,100260.89
2022-08-04T17:37:37.919Z,100258.46
2022-08-04T17:41:41.398Z,100261.83
2022-08-04T17:46:14.121Z,100257.80
2022-08-04T17:50:27.434Z,100263.58
2022-08-04T17:54:36.623Z,100264.85
2022-08-04T17:58:39.832Z,100260.21
2022-08-04T18:02:55.642Z,100265.52
2022-08-04T18:07:01.760Z,100272.06
2022-08-04T18:11:04.587Z,100274.42
2022-08-04T18:15:22.317Z,100277.77
2022-08-04T18:19:31.457Z,100283.11
2022-08-04T18:23:33.803Z,100289.32
2022-08-04T18:27:50.413Z,100287.44
2022-08-04T18:31:52.652Z,100287.99
2022-08-04T18:36:33.319Z,100293.02
2022-08-04T18:40:26.360Z,100287.76
2022-08-04T18:44:49.395Z,100290.33
2022-08-04T18:48:55.767Z,100286.94
2022-08-04T18:52:58.861Z,100285.48
2022-08-04T18:57:24.708Z,100288.52
2022-08-04T19:01:30.356Z,100288.39
2022-08-04T19:05:48.544Z,100287.87
2022-08-04T19:09:54.131Z,100293.17
2022-08-04T19:14:01.334Z,100290.63
2022-08-04T19:18:07.074Z,100299.77
2022-08-04T19:22:12.565Z,100294.79
2022-08-04T19:26:36.401Z,100294.23
2022-08-04T19:30:38.851Z,100297.27
2022-08-04T19:34:47.091Z,100299.73
2022-08-04T19:38:49.939Z,100298.20
2022-08-04T19:42:56.445Z,100291.46
2022-08-04T19:48:17.190Z,100294.61
2022-08-04T19:51:33.233Z,100298.36
2022-08-04T19:55:38.257Z,100303.27
2022-08-04T19:59:48.283Z,100303.55
2022-08-04T20:04:09.813Z,100306.02
2022-08-04T20:08:12.844Z,100313.02
2022-08-04T20:12:17.500Z,100305.14
2022-08-04T20:16:29.308Z,100308.86
2022-08-04T20:20:32.994Z,100315.48
2022-08-04T20:24:44.177Z,100311.80
2022-08-04T20:28:52.497Z,100311.58
2022-08-04T20:32:57.397Z,100314.77
2022-08-04T20:36:59.608Z,100314.71
2022-08-04T20:41:02.409Z,100319.05
2022-08-04T20:45:04.900Z,100315.04
2022-08-04T20:49:07.578Z,100318.52
2022-08-04T20:53:16.345Z,100321.23
2022-08-04T20:57:20.260Z,100321.56
2022-08-04T21:01:48.766Z,100314.44
2022-08-04T21:05:53.197Z,100317.88
2022-08-04T21:10:02.951Z,100317.13
2022-08-04T21:14:05.560Z,100316.48
2022-08-04T21:18:08.850Z,100321.27
2022-08-04T21:22:16.254Z,100317.31
2022-08-04T21:26:33.766Z,100317.92
2022-08-04T21:30:52.919Z,100314.52
2022-08-04T21:34:59.357Z,100318.42
2022-08-04T21:39:05.282Z,100318.20
2022-08-04T21:43:13.814Z,100315.67
2022-08-04T21:47:23.654Z,100316.56
2022-08-04T21:52:00.655Z,100318.33
2022-08-04T21:56:06.651Z,100306.73
2022-08-04T22:00:18.388Z,100309.34
2022-08-04T22:04:21.742Z,100306.00
2022-08-04T22:08:24.019Z,100303.90
2022-08-04T22:12:33.754Z,100305.65
2022-08-04T22:16:36.541Z,100304.02
2022-08-04T22:20:38.870Z,100306.86
2022-08-04T22:24:43.023Z,100304.00
2022-08-04T22:28:45.451Z,100306.36
2022-08-04T22:32:53.986Z,100313.12
2022-08-04T22:36:56.942Z,100305.20
2022-08-04T22:41:02.082Z,100308.84
2022-08-04T22:45:05.408Z,100303.58
2022-08-04T22:49:10.182Z,100301.89
2022-08-04T22:53:12.621Z,100309.64
2022-08-04T22:57:20.503Z,100309.66
2022-08-04T23:01:59.651Z,100300.09
2022-08-04T23:06:10.635Z,100299.66
2022-08-04T23:10:13.699Z,100298.67
2022-08-04T23:14:15.934Z,100293.94
2022-08-04T23:18:18.212Z,100286.45
2022-08-04T23:22:41.253Z,100285.39
2022-08-04T23:26:42.661Z,100283.16
2022-08-04T23:30:46.586Z,100283.58
2022-08-04T23:34:48.874Z,100282.66
2022-08-04T23:38:51.099Z,100280.36
2022-08-04T23:42:53.572Z,100277.90
2022-08-04T23:47:01.621Z,100278.79
2022-08-04T23:51:13.682Z,100274.48
2022-08-04T23:55:19.288Z,100277.77
2022-08-04T23:59:52.123Z,100273.09
